Boston, Massachusetts
Traffic Map
Current Weather Conditions
Boston, Massachusetts
Overcast Light Snow
Overcast
-10°
Feels Like: -19°
Wind Chill: -19° Ceiling: 3100
Heat Index: -10° Visibility: 3mi
Dew Point: -14° Wind: 17mph
Humidity: 73% Direction: 320° (NW)
Pressure: 29.69in Gusts: 23mph
Raw Report DataKBOS 280628Z 32015G20KT 3SM -SN OVC031 M10/M14 A2969 RMK AO2 P0001 CHINO E $
Traffic Incident Summary
Active as of:
Severity:
Category:
InformationThere was an issue retrieving the traffic information for this location. Please try a different location or try again shortly.
Advertisements
Track Severe Weather on mobile